Time;durP1;ratioP1;P1;durP2;ratioP2;P2;SDS_P1;SDS_P2;PMS_P1;PMS_P2;Temp;Humidity;BMP_temperature;BMP_pressure;BME280_temperature;BME280_humidity;BME280_pressure;Samples;Min_cycle;Max_cycle;Signal;HPM_P1;HPM_P2
2022/06/02 00:02:46;;;;;;;5.23;3.67;;;12.80;99.90;;;;;;4955908;28;20200;-75
2022/06/02 00:05:22;;;;;;;3.60;3.10;;;12.70;99.90;;;;;;4923684;28;20221;-74
2022/06/02 00:07:59;;;;;;;4.10;3.53;;;12.50;99.90;;;;;;5000639;28;20202;-73
2022/06/02 00:10:44;;;;;;;4.43;3.40;;;12.40;99.90;;;;;;5009911;28;20233;-74
2022/06/02 00:13:26;;;;;;;5.33;3.57;;;12.40;99.90;;;;;;5010258;28;20258;-74
2022/06/02 00:15:59;;;;;;;3.70;3.30;;;12.30;99.90;;;;;;5012664;28;20231;-74
2022/06/02 00:18:46;;;;;;;5.73;3.73;;;12.30;99.90;;;;;;5012907;28;20282;-74
2022/06/02 00:21:18;;;;;;;5.57;3.87;;;12.20;99.90;;;;;;5006453;28;20223;-74
2022/06/02 00:23:58;;;;;;;4.73;3.77;;;12.30;99.90;;;;;;5012252;28;20199;-74
2022/06/02 00:26:45;;;;;;;4.50;3.03;;;12.20;99.90;;;;;;5012712;28;20568;-75
2022/06/02 00:29:27;;;;;;;4.33;3.50;;;12.00;99.90;;;;;;5007722;28;20210;-74
2022/06/02 00:32:19;;;;;;;3.73;3.33;;;12.10;99.90;;;;;;5012402;28;20192;-74
2022/06/02 00:34:51;;;;;;;4.50;3.57;;;12.30;99.90;;;;;;5009387;28;20223;-76
2022/06/02 00:37:23;;;;;;;4.90;3.60;;;12.30;99.90;;;;;;5006404;28;20205;-74
2022/06/02 00:39:52;;;;;;;3.93;3.30;;;12.40;99.90;;;;;;4994909;28;20244;-76
2022/06/02 00:42:30;;;;;;;3.13;2.83;;;12.20;99.90;;;;;;5012046;28;20569;-78
2022/06/02 00:45:15;;;;;;;6.17;3.30;;;12.10;99.90;;;;;;5007106;28;20704;-75
2022/06/02 00:48:11;;;;;;;3.50;3.13;;;12.10;99.90;;;;;;5009649;28;20224;-79
2022/06/02 00:50:57;;;;;;;4.27;3.50;;;12.00;99.90;;;;;;5008743;28;20703;-82
2022/06/02 00:53:33;;;;;;;5.07;3.50;;;11.90;99.90;;;;;;5007176;28;20188;-82
2022/06/02 00:59:28;;;;;;;3.70;3.30;;;12.00;99.90;;;;;;5009417;28;20216;-83
2022/06/02 01:01:55;;;;;;;4.07;3.20;;;12.00;99.90;;;;;;5011364;28;20193;-81
2022/06/02 01:04:22;;;;;;;3.90;3.17;;;12.00;99.90;;;;;;5011215;28;20202;-78
2022/06/02 01:07:03;;;;;;;7.20;3.80;;;11.90;99.90;;;;;;5011732;28;20197;-77
2022/06/02 01:10:01;;;;;;;3.90;3.60;;;11.90;99.90;;;;;;5005976;28;20205;-74
2022/06/02 01:12:58;;;;;;;4.40;3.40;;;12.00;99.90;;;;;;5010626;28;20609;-74
2022/06/02 01:15:30;;;;;;;4.97;3.40;;;11.90;99.90;;;;;;5011399;28;20233;-74
2022/06/02 01:18:16;;;;;;;4.03;3.17;;;11.90;99.90;;;;;;5011116;28;20203;-75
2022/06/02 01:21:01;;;;;;;3.13;2.60;;;11.80;99.90;;;;;;4990896;28;20197;-76
2022/06/02 01:24:26;;;;;;;2.70;2.50;;;11.50;99.90;;;;;;5011162;28;20722;-76
2022/06/02 01:27:20;;;;;;;3.97;2.83;;;11.30;99.90;;;;;;4966813;28;20202;-75
2022/06/02 01:30:04;;;;;;;4.10;2.90;;;11.10;99.90;;;;;;5007707;28;20215;-80
2022/06/02 01:32:44;;;;;;;3.40;3.10;;;11.40;99.90;;;;;;5010583;28;20201;-76
2022/06/02 01:35:22;;;;;;;3.03;2.73;;;11.30;99.90;;;;;;4998501;28;20223;-77
2022/06/02 01:37:57;;;;;;;3.70;2.80;;;11.20;99.90;;;;;;5000859;28;20201;-80
2022/06/02 01:40:43;;;;;;;4.40;3.07;;;11.00;99.90;;;;;;5001529;28;20196;-81
2022/06/02 01:43:14;;;;;;;4.60;3.73;;;11.00;99.90;;;;;;4997926;28;20234;-73
2022/06/02 01:46:14;;;;;;;5.40;3.40;;;11.10;99.90;;;;;;4994761;28;20216;-74
2022/06/02 01:48:58;;;;;;;5.33;3.90;;;11.00;99.90;;;;;;4997699;28;20203;-74
2022/06/02 01:51:45;;;;;;;4.10;3.70;;;11.00;99.90;;;;;;4999628;28;20235;-73
2022/06/02 01:54:21;;;;;;;4.77;3.80;;;11.10;99.90;;;;;;5000609;28;20220;-72
2022/06/02 01:56:53;;;;;;;4.70;3.40;;;11.00;99.90;;;;;;4999353;28;20303;-73
2022/06/02 01:59:53;;;;;;;3.83;3.43;;;11.00;99.90;;;;;;4998620;28;20228;-73
2022/06/02 02:02:48;;;;;;;5.07;3.60;;;10.90;99.90;;;;;;4998381;28;20756;-73
2022/06/02 02:05:16;;;;;;;8.10;3.77;;;10.80;99.90;;;;;;4989648;28;20251;-72
2022/06/02 02:08:03;;;;;;;3.97;3.40;;;10.80;99.90;;;;;;5004607;28;20192;-73
2022/06/02 02:10:38;;;;;;;4.07;3.20;;;10.80;99.90;;;;;;4996783;28;20207;-72
2022/06/02 02:13:23;;;;;;;4.07;3.60;;;10.70;99.90;;;;;;4997577;28;20222;-70
2022/06/02 02:15:59;;;;;;;4.03;3.57;;;10.50;99.90;;;;;;5001817;28;20222;-72
2022/06/02 02:18:47;;;;;;;3.83;3.40;;;10.20;99.90;;;;;;4997050;28;20645;-72
2022/06/02 02:21:17;;;;;;;3.90;3.50;;;10.00;99.90;;;;;;4997494;28;20204;-71
2022/06/02 02:24:16;;;;;;;4.63;3.77;;;10.00;99.90;;;;;;4999167;28;20265;-72
2022/06/02 02:26:56;;;;;;;4.43;3.67;;;10.10;99.90;;;;;;4997102;28;20198;-74
2022/06/02 02:29:49;;;;;;;4.10;3.70;;;10.30;99.90;;;;;;4997954;28;20214;-72
2022/06/02 02:32:30;;;;;;;3.97;3.57;;;10.20;99.90;;;;;;4996919;28;20691;-72
2022/06/02 02:35:06;;;;;;;4.23;3.30;;;10.00;99.90;;;;;;5005808;28;20750;-74
2022/06/02 02:37:57;;;;;;;5.90;3.53;;;9.90;99.90;;;;;;5000317;28;20681;-72
2022/06/02 02:40:34;;;;;;;5.40;3.60;;;9.80;99.90;;;;;;4998588;28;20206;-73
2022/06/02 02:43:13;;;;;;;4.47;3.73;;;9.60;99.90;;;;;;4996633;28;20188;-72
2022/06/02 02:45:46;;;;;;;5.80;3.30;;;9.50;99.90;;;;;;4995464;28;20601;-72
2022/06/02 02:48:34;;;;;;;4.40;3.43;;;9.40;99.90;;;;;;4996609;28;20196;-72
2022/06/02 02:51:39;;;;;;;3.97;3.43;;;9.30;99.90;;;;;;5001505;28;20201;-72
2022/06/02 02:54:36;;;;;;;4.00;3.57;;;9.20;99.90;;;;;;4995751;28;20194;-72
2022/06/02 02:57:26;;;;;;;4.97;4.07;;;9.30;99.90;;;;;;4993721;28;20244;-72
2022/06/02 03:00:24;;;;;;;4.47;4.03;;;9.60;99.90;;;;;;4995716;28;20751;-73
2022/06/02 03:03:15;;;;;;;5.20;4.07;;;9.70;99.90;;;;;;4976193;28;20198;-72
2022/06/02 03:06:04;;;;;;;4.90;3.70;;;9.70;99.90;;;;;;4995267;28;20299;-72
2022/06/02 03:08:51;;;;;;;4.40;3.77;;;9.50;99.90;;;;;;4997769;28;20244;-72
2022/06/02 03:11:45;;;;;;;4.23;3.80;;;9.30;99.90;;;;;;4996028;28;20200;-72
2022/06/02 03:14:31;;;;;;;6.23;3.53;;;9.20;99.90;;;;;;4995308;28;20557;-72
2022/06/02 03:17:26;;;;;;;4.57;3.67;;;9.10;99.90;;;;;;4995362;28;20200;-73
2022/06/02 03:20:15;;;;;;;6.13;4.20;;;9.00;99.90;;;;;;4995181;28;20636;-73
2022/06/02 03:23:12;;;;;;;5.17;3.97;;;9.10;99.90;;;;;;4995426;28;20199;-72
2022/06/02 03:25:42;;;;;;;4.77;3.80;;;9.20;99.90;;;;;;4997452;28;20222;-72
2022/06/02 03:28:20;;;;;;;6.10;4.90;;;9.10;99.90;;;;;;4995541;28;20189;-72
2022/06/02 03:31:05;;;;;;;5.07;4.20;;;9.30;99.90;;;;;;4995003;28;20208;-73
2022/06/02 03:34:00;;;;;;;6.97;4.27;;;9.40;99.90;;;;;;5002409;28;20200;-72
2022/06/02 03:36:55;;;;;;;6.23;4.40;;;9.50;99.90;;;;;;4996379;28;20213;-72
2022/06/02 03:39:29;;;;;;;6.03;4.23;;;9.60;99.90;;;;;;4995655;28;20239;-72
2022/06/02 03:42:21;;;;;;;5.53;4.17;;;9.60;99.90;;;;;;5003822;28;20201;-72
2022/06/02 03:45:12;;;;;;;6.60;4.47;;;9.60;99.90;;;;;;4995865;28;20212;-72
2022/06/02 03:47:53;;;;;;;6.60;4.27;;;9.60;99.90;;;;;;5000451;28;20206;-72
2022/06/02 03:50:39;;;;;;;4.50;4.10;;;9.60;99.90;;;;;;4998854;28;20202;-72
2022/06/02 03:53:26;;;;;;;5.07;4.50;;;9.50;99.90;;;;;;4998347;28;20202;-73
2022/06/02 03:55:58;;;;;;;6.77;4.87;;;9.50;99.90;;;;;;4997712;28;20219;-72
2022/06/02 03:58:43;;;;;;;6.47;5.23;;;9.60;99.90;;;;;;4999028;28;20215;-74
2022/06/02 04:01:17;;;;;;;6.37;4.83;;;9.60;99.90;;;;;;4997866;28;20210;-72
2022/06/02 04:04:11;;;;;;;6.97;4.60;;;9.60;99.90;;;;;;4997654;28;20197;-79
2022/06/02 04:06:55;;;;;;;8.70;4.97;;;9.70;99.90;;;;;;5005341;28;20197;-76
2022/06/02 04:09:27;;;;;;;7.67;4.60;;;9.80;99.90;;;;;;4998147;28;20518;-75
2022/06/02 04:14:54;;;;;;;6.23;4.97;;;9.60;99.90;;;;;;4996801;28;20223;-72
2022/06/02 04:17:26;;;;;;;6.53;4.47;;;9.60;99.90;;;;;;4997451;28;20206;-72
2022/06/02 04:23:16;;;;;;;5.47;4.87;;;9.60;99.90;;;;;;4995013;28;20199;-72
2022/06/02 04:26:04;;;;;;;5.13;4.63;;;9.60;99.90;;;;;;4998544;28;20217;-72
2022/06/02 04:28:49;;;;;;;5.80;4.60;;;9.70;99.90;;;;;;4998148;28;20678;-73
2022/06/02 04:31:25;;;;;;;5.23;4.73;;;9.70;99.90;;;;;;4995115;28;20263;-72
2022/06/02 04:34:08;;;;;;;6.10;4.90;;;9.90;99.90;;;;;;4998593;28;20625;-71
2022/06/02 04:37:16;;;;;;;7.10;4.40;;;9.90;99.90;;;;;;4988489;28;20205;-72
2022/06/02 04:39:49;;;;;;;6.20;4.90;;;10.00;99.90;;;;;;4998127;28;20211;-72
2022/06/02 04:42:33;;;;;;;9.30;5.60;;;10.10;99.90;;;;;;4996394;28;20208;-72
2022/06/02 04:45:23;;;;;;;8.50;5.90;;;10.20;99.90;;;;;;4995888;28;20743;-72
2022/06/02 04:48:18;;;;;;;8.27;6.07;;;10.40;99.90;;;;;;5002403;28;20200;-74
2022/06/02 04:51:10;;;;;;;8.03;5.70;;;10.50;99.90;;;;;;4992282;28;20207;-73
2022/06/02 04:54:09;;;;;;;8.73;5.97;;;10.50;99.90;;;;;;4980537;28;20208;-73
2022/06/02 04:57:00;;;;;;;8.70;6.40;;;10.70;99.90;;;;;;4996706;28;20681;-72
2022/06/02 04:59:29;;;;;;;7.93;5.77;;;10.80;99.90;;;;;;4996517;28;20220;-73
2022/06/02 05:02:38;;;;;;;7.20;5.73;;;11.00;99.90;;;;;;4996380;28;20201;-73
2022/06/02 05:05:21;;;;;;;10.70;7.10;;;11.10;99.90;;;;;;4999268;28;20223;-73
2022/06/02 05:08:26;;;;;;;9.33;5.90;;;11.20;99.90;;;;;;4995533;28;20196;-73
2022/06/02 05:11:07;;;;;;;7.60;6.20;;;11.50;99.90;;;;;;4997944;28;20203;-73
2022/06/02 05:13:46;;;;;;;7.30;5.90;;;11.60;99.90;;;;;;4982702;28;20205;-74
2022/06/02 05:16:32;;;;;;;10.10;5.90;;;11.60;99.90;;;;;;4994676;28;20747;-73
2022/06/02 05:19:17;;;;;;;7.77;5.90;;;11.60;99.90;;;;;;4995043;28;20205;-74
2022/06/02 05:22:02;;;;;;;5.63;5.03;;;11.70;99.90;;;;;;4979175;28;20221;-73
2022/06/02 05:24:54;;;;;;;10.13;6.40;;;11.80;99.90;;;;;;4995564;28;20201;-75
2022/06/02 05:27:36;;;;;;;8.00;6.30;;;11.90;99.90;;;;;;4995373;28;20209;-76
2022/06/02 05:30:25;;;;;;;7.30;5.70;;;12.50;99.90;;;;;;4977466;28;20205;-81
2022/06/02 05:33:23;;;;;;;8.00;5.70;;;12.80;99.90;;;;;;4995877;28;20248;-79
2022/06/02 05:36:04;;;;;;;6.73;5.67;;;12.80;99.90;;;;;;4994504;28;20223;-80
2022/06/02 05:38:36;;;;;;;7.77;5.70;;;12.80;99.90;;;;;;4995684;28;20265;-80
2022/06/02 05:41:21;;;;;;;8.00;5.60;;;12.70;99.90;;;;;;4994619;28;20219;-79
2022/06/02 05:43:55;;;;;;;6.00;5.20;;;12.80;99.90;;;;;;4995944;28;20210;-80
2022/06/02 05:46:29;;;;;;;8.73;5.53;;;12.90;99.90;;;;;;4994005;28;20220;-75
2022/06/02 05:49:04;;;;;;;6.80;5.63;;;13.10;99.90;;;;;;4978232;28;20207;-73
2022/06/02 05:51:47;;;;;;;6.23;5.33;;;13.40;99.90;;;;;;4995243;28;20660;-75
2022/06/02 05:54:45;;;;;;;10.17;5.60;;;13.70;99.90;;;;;;4994393;28;20202;-75
2022/06/02 05:57:34;;;;;;;7.40;5.20;;;14.00;99.90;;;;;;4977115;28;20214;-74
2022/06/02 06:00:42;;;;;;;8.27;5.90;;;14.20;99.90;;;;;;4994226;28;20319;-73
2022/06/02 06:03:50;;;;;;;7.63;6.03;;;14.30;99.90;;;;;;4993242;28;20728;-73
2022/06/02 06:06:49;;;;;;;7.30;5.67;;;14.40;99.90;;;;;;4977016;28;20222;-71
2022/06/02 06:09:24;;;;;;;10.87;6.73;;;14.40;99.90;;;;;;4976756;28;20203;-73
2022/06/02 06:12:30;;;;;;;9.77;6.67;;;14.50;99.90;;;;;;4995768;28;20194;-73
2022/06/02 06:15:23;;;;;;;9.60;6.40;;;14.40;99.90;;;;;;4971883;28;20277;-73
2022/06/02 06:18:09;;;;;;;9.40;6.63;;;14.50;99.90;;;;;;4992824;28;20199;-74
2022/06/02 06:20:46;;;;;;;7.80;5.90;;;14.80;99.90;;;;;;4997283;28;20234;-74
2022/06/02 06:23:44;;;;;;;8.77;6.37;;;14.90;99.90;;;;;;4997746;28;20255;-72
2022/06/02 06:26:34;;;;;;;9.47;6.67;;;15.00;99.90;;;;;;4975991;28;20213;-73
2022/06/02 06:29:34;;;;;;;14.77;7.53;;;15.20;99.90;;;;;;4993531;28;20199;-72
2022/06/02 06:32:21;;;;;;;15.63;8.13;;;15.40;99.90;;;;;;4996352;28;20201;-73
2022/06/02 06:35:12;;;;;;;13.23;8.70;;;15.60;99.90;;;;;;4994955;28;20216;-72
2022/06/02 06:37:59;;;;;;;18.40;9.23;;;15.40;99.90;;;;;;5000945;28;20201;-72
2022/06/02 06:40:35;;;;;;;13.03;9.23;;;15.60;99.90;;;;;;4999362;28;20229;-70
2022/06/02 06:43:29;;;;;;;14.33;7.20;;;15.80;99.90;;;;;;4992574;28;20216;-72
2022/06/02 06:46:16;;;;;;;13.37;7.93;;;15.90;99.90;;;;;;4992484;28;20315;-72
2022/06/02 06:48:58;;;;;;;13.70;7.47;;;16.00;99.90;;;;;;4992906;28;20656;-73
2022/06/02 06:51:45;;;;;;;23.17;9.43;;;16.20;99.90;;;;;;4992217;28;20694;-73
2022/06/02 06:54:29;;;;;;;12.37;8.47;;;16.30;99.90;;;;;;4979705;28;20196;-73
2022/06/02 06:57:08;;;;;;;12.73;7.40;;;16.60;99.90;;;;;;4992330;28;20204;-73
2022/06/02 06:59:47;;;;;;;10.87;7.57;;;16.80;99.90;;;;;;4998992;28;20219;-73
2022/06/02 07:02:32;;;;;;;9.87;7.53;;;17.20;99.90;;;;;;4992033;28;20201;-70
2022/06/02 07:05:02;;;;;;;13.63;7.57;;;18.10;99.90;;;;;;4991777;28;20645;-71
2022/06/02 07:07:41;;;;;;;8.97;6.90;;;19.00;99.90;;;;;;4991957;28;20194;-73
2022/06/02 07:10:18;;;;;;;10.37;7.40;;;20.20;99.90;;;;;;4996613;28;20451;-73
2022/06/02 07:12:58;;;;;;;7.07;5.57;;;21.30;99.90;;;;;;4994005;28;20205;-71
2022/06/02 07:15:46;;;;;;;9.43;6.80;;;22.20;99.90;;;;;;4991887;28;20224;-73
2022/06/02 07:18:45;;;;;;;9.68;7.63;;;22.90;99.90;;;;;;4992417;28;20205;-73
2022/06/02 07:21:25;;;;;;;12.80;7.90;;;22.90;99.90;;;;;;4995689;28;20610;-72
2022/06/02 07:24:04;;;;;;;13.00;7.80;;;21.90;99.90;;;;;;4995978;28;20188;-72
2022/06/02 07:27:05;;;;;;;8.65;6.60;;;21.50;99.90;;;;;;4995231;28;20700;-73
2022/06/02 07:30:09;;;;;;;9.98;6.95;;;21.90;99.90;;;;;;5010007;28;20570;-72
2022/06/02 07:33:13;;;;;;;9.52;7.20;;;22.50;99.90;;;;;;5005778;28;20630;-72
2022/06/02 07:36:08;;;;;;;12.18;7.50;;;22.10;99.90;;;;;;4995104;28;20219;-72
2022/06/02 07:39:03;;;;;;;9.75;6.82;;;22.20;99.90;;;;;;5002715;28;20192;-73
2022/06/02 07:41:41;;;;;;;10.57;7.00;;;22.20;99.90;;;;;;4974475;28;20232;-73
2022/06/02 07:44:10;;;;;;;8.02;6.18;;;21.90;99.90;;;;;;4994800;28;20200;-73
2022/06/02 07:46:37;;;;;;;7.97;6.13;;;21.80;99.90;;;;;;4995142;28;20586;-72
2022/06/02 07:49:43;;;;;;;8.88;6.10;;;22.10;99.90;;;;;;4985404;28;20205;-74
2022/06/02 07:52:28;;;;;;;11.50;6.85;;;22.00;99.90;;;;;;4994266;28;20244;-73
2022/06/02 07:55:13;;;;;;;10.68;6.72;;;21.30;99.90;;;;;;4995008;28;20351;-74
2022/06/02 07:58:07;;;;;;;9.35;5.65;;;20.90;99.90;;;;;;5002803;28;20620;-74
2022/06/02 08:01:03;;;;;;;13.48;6.32;;;20.90;99.90;;;;;;4994489;28;20228;-73
2022/06/02 08:03:50;;;;;;;9.48;6.60;;;21.00;99.90;;;;;;4978774;28;20238;-74
2022/06/02 08:06:36;;;;;;;8.85;6.72;;;21.00;99.90;;;;;;5001669;28;20614;-75
2022/06/02 08:09:34;;;;;;;9.77;6.33;;;21.10;99.90;;;;;;4994338;28;20545;-74
2022/06/02 08:12:05;;;;;;;7.07;5.45;;;21.00;99.90;;;;;;4994035;28;20683;-74
2022/06/02 08:14:47;;;;;;;8.55;5.65;;;20.90;99.90;;;;;;4993714;28;20228;-73
2022/06/02 08:17:27;;;;;;;7.88;5.38;;;21.20;99.90;;;;;;5001500;28;20197;-76
2022/06/02 08:20:12;;;;;;;7.63;5.88;;;21.50;99.90;;;;;;4994073;28;20753;-74
2022/06/02 08:22:56;;;;;;;9.50;5.32;;;21.80;99.90;;;;;;4996055;28;20200;-73
2022/06/02 08:25:30;;;;;;;7.30;5.75;;;21.90;99.90;;;;;;4994984;28;20223;-74
2022/06/02 08:28:31;;;;;;;10.05;5.22;;;21.90;99.90;;;;;;5009778;28;20189;-74
2022/06/02 08:31:14;;;;;;;9.02;5.80;;;21.80;99.90;;;;;;4999407;28;20201;-74
2022/06/02 08:33:56;;;;;;;11.52;4.72;;;21.20;99.90;;;;;;5009075;28;20227;-72
2022/06/02 08:36:30;;;;;;;7.00;5.30;;;21.20;99.90;;;;;;5007854;28;20220;-74
2022/06/02 08:39:37;;;;;;;7.20;5.45;;;21.40;99.90;;;;;;5006824;28;20201;-73
2022/06/02 08:42:23;;;;;;;6.18;4.65;;;21.70;99.90;;;;;;4997160;28;20673;-73
2022/06/02 08:45:14;;;;;;;7.00;5.28;;;21.70;99.90;;;;;;5009644;28;20590;-71
2022/06/02 08:47:44;;;;;;;9.50;5.00;;;21.80;99.90;;;;;;4996119;28;20201;-74
2022/06/02 08:50:35;;;;;;;8.95;4.78;;;21.80;99.90;;;;;;4997786;28;20219;-72
2022/06/02 08:53:47;;;;;;;8.00;4.68;;;21.50;99.90;;;;;;5008910;28;20228;-73
2022/06/02 08:56:42;;;;;;;6.88;4.80;;;21.40;99.90;;;;;;4992112;28;20232;-72
2022/06/02 08:59:31;;;;;;;6.72;4.25;;;21.00;99.90;;;;;;5000818;28;20197;-73
2022/06/02 09:02:10;;;;;;;5.75;4.40;;;21.00;99.90;;;;;;4995595;28;20220;-73
2022/06/02 09:05:07;;;;;;;8.68;4.50;;;21.20;99.90;;;;;;4995055;28;20219;-73
2022/06/02 09:07:52;;;;;;;6.20;4.70;;;21.30;99.90;;;;;;5000488;28;20226;-74
2022/06/02 09:10:37;;;;;;;6.90;4.68;;;20.80;99.90;;;;;;5006150;28;20668;-73
2022/06/02 09:13:25;;;;;;;6.38;4.32;;;21.00;99.90;;;;;;4986526;28;20196;-74
2022/06/02 09:16:08;;;;;;;5.90;4.47;;;21.30;99.90;;;;;;5006778;28;20219;-74
2022/06/02 09:19:12;;;;;;;6.53;4.60;;;21.60;99.90;;;;;;5011840;28;20231;-74
2022/06/02 09:21:55;;;;;;;6.40;4.85;;;21.20;99.90;;;;;;4994038;28;20212;-74
2022/06/02 09:24:40;;;;;;;7.78;4.90;;;21.40;99.90;;;;;;5010226;28;20211;-73
2022/06/02 09:27:42;;;;;;;7.85;4.50;;;21.40;99.90;;;;;;5003914;28;20196;-73
2022/06/02 09:30:25;;;;;;;5.77;4.70;;;20.60;99.90;;;;;;5003862;28;20219;-73
2022/06/02 09:36:32;;;;;;;6.25;4.10;;;20.90;99.90;;;;;;5009751;28;20263;-73
2022/06/02 09:39:10;;;;;;;5.13;3.90;;;21.10;99.90;;;;;;4986463;28;20192;-74
2022/06/02 09:42:09;;;;;;;4.28;3.65;;;21.20;99.90;;;;;;4990896;28;20226;-73
2022/06/02 09:45:24;;;;;;;7.32;4.50;;;21.30;99.90;;;;;;5007159;28;20224;-73
2022/06/02 09:48:15;;;;;;;5.60;4.05;;;21.50;99.90;;;;;;5010019;28;20215;-73
2022/06/02 09:51:19;;;;;;;4.30;3.65;;;21.40;99.90;;;;;;4993035;28;20215;-74
2022/06/02 09:54:16;;;;;;;9.82;4.15;;;21.80;99.90;;;;;;5011409;28;20211;-72
2022/06/02 09:57:55;;;;;;;5.60;4.50;;;22.30;99.90;;;;;;5009850;28;20200;-73
2022/06/02 10:00:02;;;;;;;5.43;3.80;;;22.60;99.90;;;;;;5009521;28;20207;-74
2022/06/02 10:02:42;;;;;;;6.43;3.60;;;23.00;99.90;;;;;;5010025;28;20199;-74
2022/06/02 10:05:38;;;;;;;4.95;3.92;;;22.70;99.90;;;;;;5002658;28;20642;-73
2022/06/02 10:08:08;;;;;;;5.70;3.72;;;22.50;99.90;;;;;;4982405;28;20196;-73
2022/06/02 10:10:53;;;;;;;6.47;4.07;;;22.60;99.90;;;;;;5009600;28;20254;-73
2022/06/02 10:13:34;;;;;;;4.30;3.50;;;22.80;99.90;;;;;;5010136;28;20200;-73
2022/06/02 10:16:48;;;;;;;7.05;3.80;;;22.80;99.90;;;;;;5008376;28;20270;-73
2022/06/02 10:19:45;;;;;;;3.55;2.90;;;23.00;99.90;;;;;;5003140;28;20286;-73
2022/06/02 10:22:38;;;;;;;4.80;4.03;;;22.80;99.90;;;;;;4995700;28;20247;-74
2022/06/02 10:25:30;;;;;;;4.85;3.65;;;23.00;99.90;;;;;;5000743;28;20255;-74
2022/06/02 10:28:17;;;;;;;6.88;3.40;;;23.20;99.90;;;;;;5008635;28;20197;-73
2022/06/02 10:31:21;;;;;;;5.63;3.90;;;23.30;99.90;;;;;;5008068;28;20640;-75
2022/06/02 10:34:29;;;;;;;4.50;3.35;;;23.20;99.90;;;;;;5001582;28;20203;-74
2022/06/02 10:37:11;;;;;;;5.55;3.55;;;22.70;99.90;;;;;;5007904;28;20947;-74
2022/06/02 10:40:11;;;;;;;3.40;3.10;;;22.80;99.90;;;;;;5008516;28;20200;-74
2022/06/02 10:43:02;;;;;;;5.85;3.55;;;23.00;99.90;;;;;;5006006;28;20241;-75
2022/06/02 10:45:48;;;;;;;5.88;3.80;;;22.90;99.90;;;;;;4992417;28;20216;-75
2022/06/02 10:48:51;;;;;;;5.40;3.88;;;23.00;99.90;;;;;;5003576;28;20254;-74
2022/06/02 10:51:35;;;;;;;5.22;4.05;;;22.60;99.90;;;;;;5009241;28;20222;-75
2022/06/02 10:54:39;;;;;;;4.00;3.60;;;22.60;99.90;;;;;;4992942;28;20602;-72
2022/06/02 10:57:32;;;;;;;3.88;3.10;;;22.90;99.90;;;;;;5013590;28;20196;-74
2022/06/02 11:00:20;;;;;;;5.80;3.50;;;23.30;99.90;;;;;;5010901;28;20220;-74
2022/06/02 11:03:08;;;;;;;6.22;3.10;;;23.50;99.90;;;;;;5012733;28;20192;-73
2022/06/02 11:06:13;;;;;;;4.07;3.67;;;23.60;99.90;;;;;;5005184;28;20224;-74
2022/06/02 11:08:49;;;;;;;4.32;3.00;;;23.30;99.90;;;;;;5009157;28;20262;-74
2022/06/02 11:11:54;;;;;;;3.60;3.17;;;23.50;99.90;;;;;;5007748;28;20619;-75
2022/06/02 11:14:37;;;;;;;3.80;3.10;;;23.50;99.90;;;;;;4965528;28;20828;-74
2022/06/02 11:17:30;;;;;;;4.13;2.70;;;23.60;99.90;;;;;;4971396;28;20659;-75
2022/06/02 11:20:02;;;;;;;6.60;3.80;;;23.80;99.90;;;;;;4999578;28;20192;-74
2022/06/02 11:22:51;;;;;;;7.55;4.15;;;24.00;99.90;;;;;;5011399;28;20212;-74
2022/06/02 11:25:44;;;;;;;6.00;3.63;;;24.20;99.90;;;;;;5007381;28;20216;-75
2022/06/02 11:28:42;;;;;;;7.32;4.30;;;24.20;99.90;;;;;;5004811;28;20231;-72
2022/06/02 11:31:34;;;;;;;6.60;4.10;;;24.30;99.90;;;;;;5006118;28;20204;-74
2022/06/02 11:34:15;;;;;;;7.05;3.50;;;23.80;99.90;;;;;;5005393;28;20267;-73
2022/06/02 11:37:21;;;;;;;4.97;3.75;;;23.50;99.90;;;;;;5013134;28;20200;-75
2022/06/02 11:40:19;;;;;;;6.00;3.42;;;23.50;99.90;;;;;;4993719;28;20242;-74
2022/06/02 11:42:45;;;;;;;5.05;3.38;;;23.40;99.90;;;;;;4991867;28;20576;-75
2022/06/02 11:45:17;;;;;;;6.43;3.42;;;23.70;99.90;;;;;;5010557;28;20220;-75
2022/06/02 11:48:11;;;;;;;3.28;2.85;;;23.60;99.60;;;;;;5011013;28;20203;-74
2022/06/02 11:50:55;;;;;;;5.30;3.03;;;23.80;99.90;;;;;;5003084;28;20289;-75
2022/06/02 11:53:52;;;;;;;3.30;2.88;;;23.80;99.30;;;;;;5006338;28;20204;-75
2022/06/02 11:56:33;;;;;;;4.75;3.15;;;23.80;99.40;;;;;;4987285;28;20220;-74
2022/06/02 11:59:25;;;;;;;3.42;2.90;;;23.50;98.60;;;;;;5008597;28;20196;-74
2022/06/02 12:02:16;;;;;;;2.95;2.65;;;23.20;99.80;;;;;;5008968;28;20228;-74
2022/06/02 12:05:04;;;;;;;4.75;2.42;;;23.30;99.90;;;;;;5010470;28;20691;-74
2022/06/02 12:07:40;;;;;;;3.83;3.25;;;23.30;98.80;;;;;;5006396;28;20196;-74
2022/06/02 12:10:07;;;;;;;3.78;2.50;;;23.20;99.40;;;;;;5005911;28;20233;-75
2022/06/02 12:12:52;;;;;;;4.55;3.05;;;23.30;98.30;;;;;;5011351;28;20200;-74
2022/06/02 12:15:22;;;;;;;3.85;2.40;;;23.00;97.40;;;;;;5003872;28;20220;-75
2022/06/02 12:18:26;;;;;;;4.63;2.80;;;23.10;98.80;;;;;;5004055;28;20271;-74
2022/06/02 12:21:14;;;;;;;5.60;3.45;;;23.40;99.90;;;;;;5009650;28;20211;-74
2022/06/02 12:24:07;;;;;;;2.65;2.45;;;23.50;99.80;;;;;;5008746;28;20214;-74
2022/06/02 12:27:15;;;;;;;3.15;2.80;;;23.30;99.90;;;;;;5006962;28;20216;-74
2022/06/02 12:30:23;;;;;;;3.92;2.85;;;23.50;99.90;;;;;;5007273;28;20208;-75
2022/06/02 12:33:13;;;;;;;3.67;3.00;;;23.60;99.90;;;;;;5005723;28;20203;-74
2022/06/02 12:36:19;;;;;;;4.13;3.08;;;23.70;99.80;;;;;;5005912;28;20286;-74
2022/06/02 12:39:07;;;;;;;3.75;3.20;;;23.60;98.60;;;;;;4987963;28;20207;-74
2022/06/02 12:41:45;;;;;;;4.40;2.40;;;23.00;99.40;;;;;;5005240;28;20227;-75
2022/06/02 12:44:50;;;;;;;5.07;2.42;;;23.20;99.90;;;;;;5001907;28;20284;-76
2022/06/02 12:47:35;;;;;;;5.50;2.90;;;23.50;99.80;;;;;;4987607;28;20219;-75
2022/06/02 12:50:22;;;;;;;4.10;2.83;;;23.70;99.80;;;;;;5008849;28;20197;-74
2022/06/02 12:53:26;;;;;;;3.10;2.50;;;23.60;99.40;;;;;;5008819;28;20254;-73
2022/06/02 12:56:32;;;;;;;2.38;2.17;;;23.80;98.50;;;;;;5009901;28;20227;-76
2022/06/02 12:59:11;;;;;;;3.78;2.30;;;23.90;99.10;;;;;;5006079;28;20204;-74
2022/06/02 13:02:07;;;;;;;3.75;2.20;;;24.30;97.40;;;;;;5007895;28;20230;-74
2022/06/02 13:04:53;;;;;;;3.63;2.10;;;24.40;96.70;;;;;;5003958;28;20298;-74
2022/06/02 13:07:45;;;;;;;4.63;2.60;;;24.60;97.80;;;;;;5004812;28;20223;-75
2022/06/02 13:10:31;;;;;;;3.40;2.42;;;25.00;96.80;;;;;;5008106;28;20192;-72
2022/06/02 13:13:26;;;;;;;2.28;2.08;;;25.20;96.90;;;;;;5006016;28;20211;-74
2022/06/02 13:16:12;;;;;;;4.68;2.03;;;25.20;96.60;;;;;;5005165;28;20230;-74
2022/06/02 13:19:17;;;;;;;3.67;2.00;;;24.90;96.80;;;;;;5004823;28;20295;-72
2022/06/02 13:22:08;;;;;;;5.13;2.53;;;24.80;95.90;;;;;;5004560;28;20219;-74
2022/06/02 13:24:36;;;;;;;2.78;2.30;;;24.30;96.10;;;;;;5005777;28;20215;-75
2022/06/02 13:27:22;;;;;;;2.33;1.70;;;23.80;96.40;;;;;;5002906;28;20224;-72
2022/06/02 13:30:16;;;;;;;3.38;2.17;;;23.90;96.60;;;;;;4987992;28;20207;-74
2022/06/02 13:32:52;;;;;;;4.22;1.85;;;24.20;95.90;;;;;;5005050;28;20570;-73
2022/06/02 13:35:37;;;;;;;1.73;1.63;;;24.50;95.00;;;;;;5000467;28;20245;-75
2022/06/02 13:38:33;;;;;;;1.67;1.50;;;24.80;94.10;;;;;;5007490;28;20208;-74
2022/06/02 13:41:18;;;;;;;3.55;2.00;;;25.10;93.10;;;;;;5006637;28;20557;-75
2022/06/02 13:44:01;;;;;;;4.15;1.98;;;25.20;94.90;;;;;;5003171;28;20219;-76
2022/06/02 13:46:39;;;;;;;2.42;2.00;;;25.20;94.80;;;;;;5002732;28;20220;-74
2022/06/02 13:49:37;;;;;;;3.55;2.22;;;25.10;96.00;;;;;;5007458;28;20596;-73
2022/06/02 13:52:38;;;;;;;2.92;1.80;;;25.20;94.60;;;;;;5005848;28;20196;-74
2022/06/02 13:58:18;;;;;;;1.63;1.45;;;25.30;94.30;;;;;;5004877;28;20197;-74
2022/06/02 14:01:11;;;;;;;2.13;1.80;;;25.60;94.60;;;;;;5004954;28;20204;-74
2022/06/02 14:04:10;;;;;;;1.70;1.60;;;25.70;93.80;;;;;;5002869;28;20223;-73
2022/06/02 14:06:46;;;;;;;1.92;1.58;;;25.80;93.40;;;;;;5002918;28;20227;-74
2022/06/02 14:09:50;;;;;;;2.80;1.70;;;25.90;92.70;;;;;;4987906;28;20216;-75
2022/06/02 14:12:42;;;;;;;2.60;1.55;;;25.90;92.00;;;;;;5005715;28;20207;-75
2022/06/02 14:15:50;;;;;;;1.98;1.67;;;25.90;92.00;;;;;;5006280;28;20212;-75
2022/06/02 14:18:44;;;;;;;1.83;1.50;;;25.80;91.10;;;;;;5005549;28;20192;-74
2022/06/02 14:21:37;;;;;;;1.92;1.60;;;25.70;91.20;;;;;;5004398;28;20225;-76
2022/06/02 14:24:24;;;;;;;2.20;1.60;;;25.80;91.30;;;;;;5005622;28;20613;-74
2022/06/02 14:27:15;;;;;;;3.60;1.67;;;25.80;90.70;;;;;;4994484;28;20196;-73
2022/06/02 14:30:15;;;;;;;4.43;1.50;;;25.80;91.40;;;;;;5002187;28;20208;-74
2022/06/02 14:32:54;;;;;;;2.53;1.30;;;25.50;91.10;;;;;;5001373;28;20656;-74
2022/06/02 14:35:46;;;;;;;3.60;1.70;;;25.50;90.00;;;;;;4999001;28;20636;-74
2022/06/02 14:38:34;;;;;;;1.30;1.20;;;25.30;90.50;;;;;;5004508;28;20526;-72
2022/06/02 14:41:24;;;;;;;1.98;1.20;;;24.80;91.00;;;;;;5005670;28;20606;-74
2022/06/02 14:44:00;;;;;;;1.20;1.10;;;24.90;91.60;;;;;;5002569;28;20192;-75
2022/06/02 14:46:51;;;;;;;2.25;1.20;;;25.00;90.40;;;;;;5000426;28;20215;-76
2022/06/02 14:49:39;;;;;;;1.52;1.25;;;25.00;90.10;;;;;;5006996;28;20192;-74